sensor_id;sensor_type;location;lat;lon;timestamp;temperature;humidity
5419;DHT22;2732;52.092;11.556;2023-05-17T00:03:51;8.10;82.80
5419;DHT22;2732;52.092;11.556;2023-05-17T00:08:53;8.00;83.00
5419;DHT22;2732;52.092;11.556;2023-05-17T00:13:54;8.00;83.10
5419;DHT22;2732;52.092;11.556;2023-05-17T00:18:54;7.90;83.00
5419;DHT22;2732;52.092;11.556;2023-05-17T00:23:55;7.90;83.20
5419;DHT22;2732;52.092;11.556;2023-05-17T00:28:55;7.80;83.50
5419;DHT22;2732;52.092;11.556;2023-05-17T00:33:56;7.80;83.80
5419;DHT22;2732;52.092;11.556;2023-05-17T00:38:56;7.80;84.40
5419;DHT22;2732;52.092;11.556;2023-05-17T00:43:57;7.80;84.70
5419;DHT22;2732;52.092;11.556;2023-05-17T00:48:57;7.70;84.80
5419;DHT22;2732;52.092;11.556;2023-05-17T00:53:58;7.70;85.40
5419;DHT22;2732;52.092;11.556;2023-05-17T00:58:59;7.70;85.90
5419;DHT22;2732;52.092;11.556;2023-05-17T01:04:00;7.70;86.40
5419;DHT22;2732;52.092;11.556;2023-05-17T01:09:01;7.60;86.40
5419;DHT22;2732;52.092;11.556;2023-05-17T01:20:00;7.60;87.10
5419;DHT22;2732;52.092;11.556;2023-05-17T01:25:32;7.50;87.60
5419;DHT22;2732;52.092;11.556;2023-05-17T01:30:36;7.50;88.40
5419;DHT22;2732;52.092;11.556;2023-05-17T01:35:37;7.40;89.30
5419;DHT22;2732;52.092;11.556;2023-05-17T01:40:55;7.40;89.30
5419;DHT22;2732;52.092;11.556;2023-05-17T01:51:38;7.30;90.10
5419;DHT22;2732;52.092;11.556;2023-05-17T01:57:05;7.30;90.20
5419;DHT22;2732;52.092;11.556;2023-05-17T02:02:07;7.20;90.50
5419;DHT22;2732;52.092;11.556;2023-05-17T02:07:10;7.20;91.00
5419;DHT22;2732;52.092;11.556;2023-05-17T02:12:10;7.20;91.20
5419;DHT22;2732;52.092;11.556;2023-05-17T02:23:27;7.10;91.90
5419;DHT22;2732;52.092;11.556;2023-05-17T02:28:27;7.10;91.90
5419;DHT22;2732;52.092;11.556;2023-05-17T02:33:28;7.10;92.00
5419;DHT22;2732;52.092;11.556;2023-05-17T02:38:29;7.00;92.20
5419;DHT22;2732;52.092;11.556;2023-05-17T02:43:29;7.00;92.40
5419;DHT22;2732;52.092;11.556;2023-05-17T02:48:30;7.00;92.70
5419;DHT22;2732;52.092;11.556;2023-05-17T02:53:31;7.00;92.90
5419;DHT22;2732;52.092;11.556;2023-05-17T02:58:31;6.90;93.30
5419;DHT22;2732;52.092;11.556;2023-05-17T03:03:32;6.90;93.70
5419;DHT22;2732;52.092;11.556;2023-05-17T03:08:32;7.00;94.10
5419;DHT22;2732;52.092;11.556;2023-05-17T03:13:33;6.90;94.40
5419;DHT22;2732;52.092;11.556;2023-05-17T03:18:34;6.90;94.70
5419;DHT22;2732;52.092;11.556;2023-05-17T03:23:35;6.90;94.70
5419;DHT22;2732;52.092;11.556;2023-05-17T03:28:35;7.00;95.00
5419;DHT22;2732;52.092;11.556;2023-05-17T03:33:36;6.90;95.10
5419;DHT22;2732;52.092;11.556;2023-05-17T03:38:37;6.90;95.50
5419;DHT22;2732;52.092;11.556;2023-05-17T03:43:37;6.90;95.90
5419;DHT22;2732;52.092;11.556;2023-05-17T03:48:38;6.90;96.00
5419;DHT22;2732;52.092;11.556;2023-05-17T03:53:38;7.00;96.30
5419;DHT22;2732;52.092;11.556;2023-05-17T03:58:42;7.00;96.60
5419;DHT22;2732;52.092;11.556;2023-05-17T04:03:43;7.00;96.90
5419;DHT22;2732;52.092;11.556;2023-05-17T04:08:43;7.00;96.70
5419;DHT22;2732;52.092;11.556;2023-05-17T04:13:44;7.10;96.90
5419;DHT22;2732;52.092;11.556;2023-05-17T04:18:45;7.10;97.20
5419;DHT22;2732;52.092;11.556;2023-05-17T04:23:46;7.10;97.40
5419;DHT22;2732;52.092;11.556;2023-05-17T04:28:46;7.10;97.70
5419;DHT22;2732;52.092;11.556;2023-05-17T04:33:47;7.20;98.00
5419;DHT22;2732;52.092;11.556;2023-05-17T04:38:48;7.20;98.50
5419;DHT22;2732;52.092;11.556;2023-05-17T04:43:48;7.20;99.40
5419;DHT22;2732;52.092;11.556;2023-05-17T04:48:49;7.30;99.90
5419;DHT22;2732;52.092;11.556;2023-05-17T04:53:49;7.30;99.90
5419;DHT22;2732;52.092;11.556;2023-05-17T04:58:50;7.40;99.90
5419;DHT22;2732;52.092;11.556;2023-05-17T05:03:50;7.50;99.90
5419;DHT22;2732;52.092;11.556;2023-05-17T05:08:51;7.60;99.90
5419;DHT22;2732;52.092;11.556;2023-05-17T05:13:52;7.60;99.90
5419;DHT22;2732;52.092;11.556;2023-05-17T05:18:52;7.70;99.90
5419;DHT22;2732;52.092;11.556;2023-05-17T05:23:53;7.90;99.90
5419;DHT22;2732;52.092;11.556;2023-05-17T05:28:54;8.00;99.90
5419;DHT22;2732;52.092;11.556;2023-05-17T05:33:54;8.10;99.90
5419;DHT22;2732;52.092;11.556;2023-05-17T05:38:55;8.20;99.90
5419;DHT22;2732;52.092;11.556;2023-05-17T05:43:56;8.40;99.90
5419;DHT22;2732;52.092;11.556;2023-05-17T05:48:56;8.90;99.90
5419;DHT22;2732;52.092;11.556;2023-05-17T05:53:57;9.20;99.90
5419;DHT22;2732;52.092;11.556;2023-05-17T05:58:59;9.60;99.90
5419;DHT22;2732;52.092;11.556;2023-05-17T06:03:59;9.90;99.90
5419;DHT22;2732;52.092;11.556;2023-05-17T06:09:00;10.10;99.90
5419;DHT22;2732;52.092;11.556;2023-05-17T06:14:01;10.30;99.90
5419;DHT22;2732;52.092;11.556;2023-05-17T06:19:02;10.40;99.90
5419;DHT22;2732;52.092;11.556;2023-05-17T06:24:03;10.50;99.90
5419;DHT22;2732;52.092;11.556;2023-05-17T06:29:04;10.50;99.90
5419;DHT22;2732;52.092;11.556;2023-05-17T06:34:05;10.40;99.90
5419;DHT22;2732;52.092;11.556;2023-05-17T06:39:05;10.50;99.80
5419;DHT22;2732;52.092;11.556;2023-05-17T06:44:06;10.60;98.80
5419;DHT22;2732;52.092;11.556;2023-05-17T06:49:07;10.70;97.80
5419;DHT22;2732;52.092;11.556;2023-05-17T06:54:07;10.90;97.40
5419;DHT22;2732;52.092;11.556;2023-05-17T06:59:08;10.80;96.40
5419;DHT22;2732;52.092;11.556;2023-05-17T07:04:08;10.90;96.30
5419;DHT22;2732;52.092;11.556;2023-05-17T07:09:09;11.00;95.90
5419;DHT22;2732;52.092;11.556;2023-05-17T07:14:10;11.20;95.50
5419;DHT22;2732;52.092;11.556;2023-05-17T07:19:10;11.30;94.90
5419;DHT22;2732;52.092;11.556;2023-05-17T07:24:11;11.20;94.20
5419;DHT22;2732;52.092;11.556;2023-05-17T07:29:12;11.50;93.80
5419;DHT22;2732;52.092;11.556;2023-05-17T07:34:12;11.60;92.60
5419;DHT22;2732;52.092;11.556;2023-05-17T07:39:13;11.70;91.80
5419;DHT22;2732;52.092;11.556;2023-05-17T07:44:14;11.80;90.90
5419;DHT22;2732;52.092;11.556;2023-05-17T07:49:14;11.80;90.60
5419;DHT22;2732;52.092;11.556;2023-05-17T07:54:25;12.60;89.60
5419;DHT22;2732;52.092;11.556;2023-05-17T07:59:29;12.60;85.80
5419;DHT22;2732;52.092;11.556;2023-05-17T08:04:29;12.80;86.10
5419;DHT22;2732;52.092;11.556;2023-05-17T08:09:30;12.80;86.20
5419;DHT22;2732;52.092;11.556;2023-05-17T08:14:31;12.90;86.60
5419;DHT22;2732;52.092;11.556;2023-05-17T08:19:31;12.90;83.60
5419;DHT22;2732;52.092;11.556;2023-05-17T08:24:32;12.90;83.70
5419;DHT22;2732;52.092;11.556;2023-05-17T08:29:33;13.00;82.10
5419;DHT22;2732;52.092;11.556;2023-05-17T08:34:33;13.60;82.30
5419;DHT22;2732;52.092;11.556;2023-05-17T08:39:34;14.20;80.10
5419;DHT22;2732;52.092;11.556;2023-05-17T08:44:35;15.00;77.90
5419;DHT22;2732;52.092;11.556;2023-05-17T08:49:38;14.70;77.10
5419;DHT22;2732;52.092;11.556;2023-05-17T08:54:40;14.80;77.20
5419;DHT22;2732;52.092;11.556;2023-05-17T08:59:41;14.90;76.40
5419;DHT22;2732;52.092;11.556;2023-05-17T09:04:42;15.00;76.80
5419;DHT22;2732;52.092;11.556;2023-05-17T09:09:43;15.00;76.20
5419;DHT22;2732;52.092;11.556;2023-05-17T09:14:44;15.00;75.30
5419;DHT22;2732;52.092;11.556;2023-05-17T09:19:46;14.90;74.20
5419;DHT22;2732;52.092;11.556;2023-05-17T09:24:48;15.00;74.00
5419;DHT22;2732;52.092;11.556;2023-05-17T09:29:49;15.10;72.60
5419;DHT22;2732;52.092;11.556;2023-05-17T09:34:50;15.90;71.90
5419;DHT22;2732;52.092;11.556;2023-05-17T09:39:51;16.70;70.10
5419;DHT22;2732;52.092;11.556;2023-05-17T09:44:55;17.60;68.90
5419;DHT22;2732;52.092;11.556;2023-05-17T09:49:58;17.50;68.00
5419;DHT22;2732;52.092;11.556;2023-05-17T09:55:02;17.30;68.60
5419;DHT22;2732;52.092;11.556;2023-05-17T10:00:05;17.60;65.90
5419;DHT22;2732;52.092;11.556;2023-05-17T10:05:12;18.00;65.10
5419;DHT22;2732;52.092;11.556;2023-05-17T10:10:13;18.70;63.90
5419;DHT22;2732;52.092;11.556;2023-05-17T10:15:14;19.40;61.90
5419;DHT22;2732;52.092;11.556;2023-05-17T10:20:17;19.70;60.30
5419;DHT22;2732;52.092;11.556;2023-05-17T10:25:20;19.40;59.60
5419;DHT22;2732;52.092;11.556;2023-05-17T10:30:21;19.40;58.60
5419;DHT22;2732;52.092;11.556;2023-05-17T10:35:26;19.60;58.10
5419;DHT22;2732;52.092;11.556;2023-05-17T10:40:28;18.70;57.50
5419;DHT22;2732;52.092;11.556;2023-05-17T10:45:30;19.00;57.20
5419;DHT22;2732;52.092;11.556;2023-05-17T10:50:31;19.70;57.30
5419;DHT22;2732;52.092;11.556;2023-05-17T10:55:40;19.90;56.70
5419;DHT22;2732;52.092;11.556;2023-05-17T11:00:46;19.80;56.10
5419;DHT22;2732;52.092;11.556;2023-05-17T11:06:14;19.70;55.70
5419;DHT22;2732;52.092;11.556;2023-05-17T11:11:18;19.90;55.90
5419;DHT22;2732;52.092;11.556;2023-05-17T11:16:33;19.50;55.80
5419;DHT22;2732;52.092;11.556;2023-05-17T11:21:35;19.90;56.00
5419;DHT22;2732;52.092;11.556;2023-05-17T11:26:45;20.90;55.70
5419;DHT22;2732;52.092;11.556;2023-05-17T11:31:50;21.40;53.90
5419;DHT22;2732;52.092;11.556;2023-05-17T11:36:53;21.80;52.20
5419;DHT22;2732;52.092;11.556;2023-05-17T11:41:56;22.20;52.10
5419;DHT22;2732;52.092;11.556;2023-05-17T11:47:07;22.20;52.60
5419;DHT22;2732;52.092;11.556;2023-05-17T11:52:10;22.30;52.00
5419;DHT22;2732;52.092;11.556;2023-05-17T11:57:12;22.40;51.70
5419;DHT22;2732;52.092;11.556;2023-05-17T12:02:32;22.70;49.80
5419;DHT22;2732;52.092;11.556;2023-05-17T12:07:33;22.90;48.30
5419;DHT22;2732;52.092;11.556;2023-05-17T12:12:34;23.10;48.40
5419;DHT22;2732;52.092;11.556;2023-05-17T12:17:38;22.90;48.50
5419;DHT22;2732;52.092;11.556;2023-05-17T12:22:55;22.70;49.10
5419;DHT22;2732;52.092;11.556;2023-05-17T12:28:15;22.00;50.00
5419;DHT22;2732;52.092;11.556;2023-05-17T12:33:17;22.60;49.80
5419;DHT22;2732;52.092;11.556;2023-05-17T12:38:18;23.00;49.30
5419;DHT22;2732;52.092;11.556;2023-05-17T12:43:22;23.50;50.20
5419;DHT22;2732;52.092;11.556;2023-05-17T12:48:23;23.70;48.20
5419;DHT22;2732;52.092;11.556;2023-05-17T12:53:37;23.70;47.60
5419;DHT22;2732;52.092;11.556;2023-05-17T12:59:26;23.70;47.80
5419;DHT22;2732;52.092;11.556;2023-05-17T13:04:32;23.80;46.90
5419;DHT22;2732;52.092;11.556;2023-05-17T13:09:33;24.00;47.20
5419;DHT22;2732;52.092;11.556;2023-05-17T13:14:41;24.10;46.40
5419;DHT22;2732;52.092;11.556;2023-05-17T13:19:45;23.70;45.60
5419;DHT22;2732;52.092;11.556;2023-05-17T13:24:45;23.30;47.10
5419;DHT22;2732;52.092;11.556;2023-05-17T13:29:46;23.60;47.40
5419;DHT22;2732;52.092;11.556;2023-05-17T13:34:47;23.50;47.00
5419;DHT22;2732;52.092;11.556;2023-05-17T13:39:47;23.30;45.70
5419;DHT22;2732;52.092;11.556;2023-05-17T13:44:48;23.20;44.40
5419;DHT22;2732;52.092;11.556;2023-05-17T13:49:49;23.10;44.10
5419;DHT22;2732;52.092;11.556;2023-05-17T13:54:50;22.70;44.50
5419;DHT22;2732;52.092;11.556;2023-05-17T13:59:50;23.00;45.20
5419;DHT22;2732;52.092;11.556;2023-05-17T14:04:51;23.20;45.00
5419;DHT22;2732;52.092;11.556;2023-05-17T14:09:51;23.00;44.70
5419;DHT22;2732;52.092;11.556;2023-05-17T14:14:52;23.10;46.10
5419;DHT22;2732;52.092;11.556;2023-05-17T14:19:53;22.90;45.50
5419;DHT22;2732;52.092;11.556;2023-05-17T14:24:54;22.60;45.60
5419;DHT22;2732;52.092;11.556;2023-05-17T14:29:54;23.00;45.20
5419;DHT22;2732;52.092;11.556;2023-05-17T14:34:55;23.10;46.40
5419;DHT22;2732;52.092;11.556;2023-05-17T14:39:55;22.70;46.80
5419;DHT22;2732;52.092;11.556;2023-05-17T14:44:56;23.00;46.20
5419;DHT22;2732;52.092;11.556;2023-05-17T14:49:57;23.30;45.90
5419;DHT22;2732;52.092;11.556;2023-05-17T14:54:58;23.40;45.50
5419;DHT22;2732;52.092;11.556;2023-05-17T14:59:58;23.50;45.00
5419;DHT22;2732;52.092;11.556;2023-05-17T15:05:00;23.40;44.70
5419;DHT22;2732;52.092;11.556;2023-05-17T15:10:06;23.40;44.80
5419;DHT22;2732;52.092;11.556;2023-05-17T15:15:08;23.60;45.20
5419;DHT22;2732;52.092;11.556;2023-05-17T15:20:09;23.80;45.40
5419;DHT22;2732;52.092;11.556;2023-05-17T15:25:10;24.00;45.30
5419;DHT22;2732;52.092;11.556;2023-05-17T15:30:11;24.00;44.50
5419;DHT22;2732;52.092;11.556;2023-05-17T15:35:12;24.00;44.40
5419;DHT22;2732;52.092;11.556;2023-05-17T15:40:13;23.70;44.40
5419;DHT22;2732;52.092;11.556;2023-05-17T15:45:14;23.60;43.70
5419;DHT22;2732;52.092;11.556;2023-05-17T15:50:16;23.30;43.40
5419;DHT22;2732;52.092;11.556;2023-05-17T15:55:16;22.70;43.70
5419;DHT22;2732;52.092;11.556;2023-05-17T16:00:17;22.40;44.30
5419;DHT22;2732;52.092;11.556;2023-05-17T16:05:18;22.00;45.00
5419;DHT22;2732;52.092;11.556;2023-05-17T16:10:19;21.60;45.20
5419;DHT22;2732;52.092;11.556;2023-05-17T16:15:19;21.20;44.90
5419;DHT22;2732;52.092;11.556;2023-05-17T16:20:20;21.20;45.20
5419;DHT22;2732;52.092;11.556;2023-05-17T16:25:22;21.30;45.60
5419;DHT22;2732;52.092;11.556;2023-05-17T16:30:23;21.30;45.70
5419;DHT22;2732;52.092;11.556;2023-05-17T16:35:24;21.40;45.70
5419;DHT22;2732;52.092;11.556;2023-05-17T16:40:25;21.20;45.60
5419;DHT22;2732;52.092;11.556;2023-05-17T16:45:27;20.80;45.80
5419;DHT22;2732;52.092;11.556;2023-05-17T16:50:28;20.80;46.30
5419;DHT22;2732;52.092;11.556;2023-05-17T16:55:29;20.90;46.80
5419;DHT22;2732;52.092;11.556;2023-05-17T17:00:30;20.90;47.00
5419;DHT22;2732;52.092;11.556;2023-05-17T17:05:31;20.90;46.80
5419;DHT22;2732;52.092;11.556;2023-05-17T17:10:31;20.80;46.80
5419;DHT22;2732;52.092;11.556;2023-05-17T17:15:33;20.80;46.70
5419;DHT22;2732;52.092;11.556;2023-05-17T17:20:34;20.70;46.20
5419;DHT22;2732;52.092;11.556;2023-05-17T17:25:35;20.50;46.00
5419;DHT22;2732;52.092;11.556;2023-05-17T17:30:35;20.40;45.70
5419;DHT22;2732;52.092;11.556;2023-05-17T17:35:36;20.20;46.20
5419;DHT22;2732;52.092;11.556;2023-05-17T17:40:36;20.10;46.50
5419;DHT22;2732;52.092;11.556;2023-05-17T17:45:37;19.90;47.10
5419;DHT22;2732;52.092;11.556;2023-05-17T17:50:37;19.60;46.90
5419;DHT22;2732;52.092;11.556;2023-05-17T17:55:38;19.10;46.90
5419;DHT22;2732;52.092;11.556;2023-05-17T18:00:39;18.70;47.70
5419;DHT22;2732;52.092;11.556;2023-05-17T18:05:39;18.30;48.10
5419;DHT22;2732;52.092;11.556;2023-05-17T18:10:40;18.00;48.40
5419;DHT22;2732;52.092;11.556;2023-05-17T18:15:40;17.60;48.60
5419;DHT22;2732;52.092;11.556;2023-05-17T18:20:41;17.30;49.00
5419;DHT22;2732;52.092;11.556;2023-05-17T18:25:41;17.00;49.50
5419;DHT22;2732;52.092;11.556;2023-05-17T18:30:42;16.60;50.10
5419;DHT22;2732;52.092;11.556;2023-05-17T18:35:43;16.20;50.60
5419;DHT22;2732;52.092;11.556;2023-05-17T18:40:45;16.00;51.20
5419;DHT22;2732;52.092;11.556;2023-05-17T18:45:46;15.70;51.50
5419;DHT22;2732;52.092;11.556;2023-05-17T18:50:47;15.50;52.00
5419;DHT22;2732;52.092;11.556;2023-05-17T18:55:47;15.20;52.50
5419;DHT22;2732;52.092;11.556;2023-05-17T19:00:48;14.90;52.90
5419;DHT22;2732;52.092;11.556;2023-05-17T19:05:48;14.70;53.50
5419;DHT22;2732;52.092;11.556;2023-05-17T19:10:49;14.40;54.10
5419;DHT22;2732;52.092;11.556;2023-05-17T19:15:50;14.20;54.80
5419;DHT22;2732;52.092;11.556;2023-05-17T19:20:51;13.90;55.10
5419;DHT22;2732;52.092;11.556;2023-05-17T19:25:53;13.70;55.50
5419;DHT22;2732;52.092;11.556;2023-05-17T19:30:54;13.50;55.90
5419;DHT22;2732;52.092;11.556;2023-05-17T19:35:55;13.30;56.30
5419;DHT22;2732;52.092;11.556;2023-05-17T19:40:55;13.10;56.50
5419;DHT22;2732;52.092;11.556;2023-05-17T19:45:56;13.00;56.80
5419;DHT22;2732;52.092;11.556;2023-05-17T19:50:56;12.80;57.10
5419;DHT22;2732;52.092;11.556;2023-05-17T19:55:57;12.60;57.30
5419;DHT22;2732;52.092;11.556;2023-05-17T20:01:00;12.50;57.60
5419;DHT22;2732;52.092;11.556;2023-05-17T20:06:01;12.30;57.90
5419;DHT22;2732;52.092;11.556;2023-05-17T20:11:02;12.20;58.10
5419;DHT22;2732;52.092;11.556;2023-05-17T20:16:02;12.00;58.40
5419;DHT22;2732;52.092;11.556;2023-05-17T20:21:03;11.90;58.70
5419;DHT22;2732;52.092;11.556;2023-05-17T20:26:04;11.80;59.00
5419;DHT22;2732;52.092;11.556;2023-05-17T20:31:05;11.60;59.40
5419;DHT22;2732;52.092;11.556;2023-05-17T20:36:06;11.50;59.70
5419;DHT22;2732;52.092;11.556;2023-05-17T20:41:09;11.40;60.00
5419;DHT22;2732;52.092;11.556;2023-05-17T20:46:10;11.20;60.30
5419;DHT22;2732;52.092;11.556;2023-05-17T20:51:13;11.10;60.80
5419;DHT22;2732;52.092;11.556;2023-05-17T20:56:13;11.00;61.20
5419;DHT22;2732;52.092;11.556;2023-05-17T21:01:14;10.80;61.40
5419;DHT22;2732;52.092;11.556;2023-05-17T21:06:14;10.70;61.90
5419;DHT22;2732;52.092;11.556;2023-05-17T21:11:15;10.60;62.30
5419;DHT22;2732;52.092;11.556;2023-05-17T21:16:20;10.50;62.70
5419;DHT22;2732;52.092;11.556;2023-05-17T21:21:20;10.40;63.10
5419;DHT22;2732;52.092;11.556;2023-05-17T21:26:21;10.30;63.50
5419;DHT22;2732;52.092;11.556;2023-05-17T21:31:22;10.20;63.80
5419;DHT22;2732;52.092;11.556;2023-05-17T21:36:23;10.10;64.40
5419;DHT22;2732;52.092;11.556;2023-05-17T21:41:23;9.90;66.00
5419;DHT22;2732;52.092;11.556;2023-05-17T21:46:24;9.80;67.00
5419;DHT22;2732;52.092;11.556;2023-05-17T21:51:25;9.70;66.70
5419;DHT22;2732;52.092;11.556;2023-05-17T21:56:25;9.70;67.20
5419;DHT22;2732;52.092;11.556;2023-05-17T22:01:26;9.60;67.60
5419;DHT22;2732;52.092;11.556;2023-05-17T22:06:27;9.40;68.10
5419;DHT22;2732;52.092;11.556;2023-05-17T22:11:28;9.40;68.70
5419;DHT22;2732;52.092;11.556;2023-05-17T22:16:29;9.30;69.30
5419;DHT22;2732;52.092;11.556;2023-05-17T22:21:32;9.20;69.80
5419;DHT22;2732;52.092;11.556;2023-05-17T22:26:32;9.10;70.20
5419;DHT22;2732;52.092;11.556;2023-05-17T22:31:33;9.00;70.90
5419;DHT22;2732;52.092;11.556;2023-05-17T22:36:36;9.00;71.30
5419;DHT22;2732;52.092;11.556;2023-05-17T22:41:37;8.90;72.00
5419;DHT22;2732;52.092;11.556;2023-05-17T22:46:38;8.80;72.10
5419;DHT22;2732;52.092;11.556;2023-05-17T22:51:41;8.70;72.60
5419;DHT22;2732;52.092;11.556;2023-05-17T22:56:41;8.70;73.10
5419;DHT22;2732;52.092;11.556;2023-05-17T23:01:42;8.60;73.50
5419;DHT22;2732;52.092;11.556;2023-05-17T23:06:42;8.60;74.00
5419;DHT22;2732;52.092;11.556;2023-05-17T23:11:43;8.50;74.20
5419;DHT22;2732;52.092;11.556;2023-05-17T23:16:43;8.40;74.50
5419;DHT22;2732;52.092;11.556;2023-05-17T23:21:44;8.30;75.00
5419;DHT22;2732;52.092;11.556;2023-05-17T23:26:45;8.30;75.40
5419;DHT22;2732;52.092;11.556;2023-05-17T23:31:46;8.20;75.50
5419;DHT22;2732;52.092;11.556;2023-05-17T23:36:47;8.10;75.90
5419;DHT22;2732;52.092;11.556;2023-05-17T23:41:50;8.00;76.30
5419;DHT22;2732;52.092;11.556;2023-05-17T23:46:51;8.00;76.70
5419;DHT22;2732;52.092;11.556;2023-05-17T23:51:54;7.90;77.30
5419;DHT22;2732;52.092;11.556;2023-05-17T23:56:58;7.80;77.70
